sensor_id;sensor_type;location;lat;lon;timestamp;P1;durP1;ratioP1;P2;durP2;ratioP2
65202;SDS011;51788;45.124;38.966;2022-09-24T00:01:18;26.27;;;8.38;;
65202;SDS011;51788;45.124;38.966;2022-09-24T00:03:54;28.38;;;9.20;;
65202;SDS011;51788;45.124;38.966;2022-09-24T00:06:22;13.02;;;8.43;;
65202;SDS011;51788;45.124;38.966;2022-09-24T00:08:49;12.15;;;7.65;;
65202;SDS011;51788;45.124;38.966;2022-09-24T00:11:18;15.18;;;8.40;;
65202;SDS011;51788;45.124;38.966;2022-09-24T00:13:46;18.30;;;8.98;;
65202;SDS011;51788;45.124;38.966;2022-09-24T00:16:14;13.23;;;8.10;;
65202;SDS011;51788;45.124;38.966;2022-09-24T00:18:41;14.30;;;8.93;;
65202;SDS011;51788;45.124;38.966;2022-09-24T00:23:40;11.68;;;7.63;;
65202;SDS011;51788;45.124;38.966;2022-09-24T00:26:08;11.35;;;7.53;;
65202;SDS011;51788;45.124;38.966;2022-09-24T00:28:54;8.25;;;7.07;;
65202;SDS011;51788;45.124;38.966;2022-09-24T00:31:20;10.15;;;7.18;;
65202;SDS011;51788;45.124;38.966;2022-09-24T00:33:46;10.15;;;7.43;;
65202;SDS011;51788;45.124;38.966;2022-09-24T00:36:16;26.40;;;6.55;;
65202;SDS011;51788;45.124;38.966;2022-09-24T00:38:46;10.45;;;7.25;;
65202;SDS011;51788;45.124;38.966;2022-09-24T00:41:14;7.28;;;6.63;;
65202;SDS011;51788;45.124;38.966;2022-09-24T00:43:40;10.30;;;6.60;;
65202;SDS011;51788;45.124;38.966;2022-09-24T00:46:13;7.15;;;6.47;;
65202;SDS011;51788;45.124;38.966;2022-09-24T00:49:03;6.23;;;5.73;;
65202;SDS011;51788;45.124;38.966;2022-09-24T00:51:35;6.95;;;6.35;;
65202;SDS011;51788;45.124;38.966;2022-09-24T00:54:05;13.95;;;7.03;;
65202;SDS011;51788;45.124;38.966;2022-09-24T00:56:35;7.78;;;6.40;;
65202;SDS011;51788;45.124;38.966;2022-09-24T00:59:04;12.70;;;6.32;;
65202;SDS011;51788;45.124;38.966;2022-09-24T01:01:32;6.78;;;6.07;;
65202;SDS011;51788;45.124;38.966;2022-09-24T01:03:58;9.43;;;6.22;;
65202;SDS011;51788;45.124;38.966;2022-09-24T01:06:26;7.40;;;6.70;;
65202;SDS011;51788;45.124;38.966;2022-09-24T01:08:53;6.57;;;6.03;;
65202;SDS011;51788;45.124;38.966;2022-09-24T01:16:43;6.70;;;5.97;;
65202;SDS011;51788;45.124;38.966;2022-09-24T01:22:25;7.72;;;6.57;;
65202;SDS011;51788;45.124;38.966;2022-09-24T01:30:57;9.32;;;6.80;;
65202;SDS011;51788;45.124;38.966;2022-09-24T01:33:45;7.72;;;6.28;;
65202;SDS011;51788;45.124;38.966;2022-09-24T01:36:17;11.88;;;6.10;;
65202;SDS011;51788;45.124;38.966;2022-09-24T01:38:45;6.97;;;6.22;;
65202;SDS011;51788;45.124;38.966;2022-09-24T01:41:14;6.35;;;5.85;;
65202;SDS011;51788;45.124;38.966;2022-09-24T01:43:40;6.93;;;6.30;;
65202;SDS011;51788;45.124;38.966;2022-09-24T01:46:07;7.72;;;6.60;;
65202;SDS011;51788;45.124;38.966;2022-09-24T01:48:37;7.53;;;6.05;;
65202;SDS011;51788;45.124;38.966;2022-09-24T01:53:31;6.57;;;5.70;;
65202;SDS011;51788;45.124;38.966;2022-09-24T01:56:17;10.23;;;6.38;;
65202;SDS011;51788;45.124;38.966;2022-09-24T01:58:50;12.32;;;6.63;;
65202;SDS011;51788;45.124;38.966;2022-09-24T02:01:33;10.80;;;7.35;;
65202;SDS011;51788;45.124;38.966;2022-09-24T02:04:05;6.15;;;5.60;;
65202;SDS011;51788;45.124;38.966;2022-09-24T02:06:39;15.00;;;6.47;;
65202;SDS011;51788;45.124;38.966;2022-09-24T02:09:30;8.63;;;6.03;;
65202;SDS011;51788;45.124;38.966;2022-09-24T02:11:59;11.95;;;6.18;;
65202;SDS011;51788;45.124;38.966;2022-09-24T02:14:55;10.90;;;6.55;;
65202;SDS011;51788;45.124;38.966;2022-09-24T02:17:26;6.60;;;6.10;;
65202;SDS011;51788;45.124;38.966;2022-09-24T02:19:57;6.18;;;5.57;;
65202;SDS011;51788;45.124;38.966;2022-09-24T02:22:28;6.18;;;5.68;;
65202;SDS011;51788;45.124;38.966;2022-09-24T02:24:59;6.00;;;5.53;;
65202;SDS011;51788;45.124;38.966;2022-09-24T02:27:28;14.23;;;6.28;;
65202;SDS011;51788;45.124;38.966;2022-09-24T02:29:55;7.03;;;5.78;;
65202;SDS011;51788;45.124;38.966;2022-09-24T02:32:22;7.22;;;6.22;;
65202;SDS011;51788;45.124;38.966;2022-09-24T02:34:52;6.60;;;5.68;;
65202;SDS011;51788;45.124;38.966;2022-09-24T02:37:23;6.20;;;5.65;;
65202;SDS011;51788;45.124;38.966;2022-09-24T02:39:49;9.82;;;6.07;;
65202;SDS011;51788;45.124;38.966;2022-09-24T02:42:15;6.93;;;6.22;;
65202;SDS011;51788;45.124;38.966;2022-09-24T02:44:43;6.95;;;6.15;;
65202;SDS011;51788;45.124;38.966;2022-09-24T02:47:09;9.75;;;5.72;;
65202;SDS011;51788;45.124;38.966;2022-09-24T02:49:36;8.18;;;5.78;;
65202;SDS011;51788;45.124;38.966;2022-09-24T02:52:02;6.60;;;5.32;;
65202;SDS011;51788;45.124;38.966;2022-09-24T02:54:29;6.50;;;5.82;;
65202;SDS011;51788;45.124;38.966;2022-09-24T02:56:55;6.53;;;5.95;;
65202;SDS011;51788;45.124;38.966;2022-09-24T02:59:22;9.52;;;5.22;;
65202;SDS011;51788;45.124;38.966;2022-09-24T03:01:48;11.48;;;6.60;;
65202;SDS011;51788;45.124;38.966;2022-09-24T03:04:14;9.52;;;6.72;;
65202;SDS011;51788;45.124;38.966;2022-09-24T03:06:41;7.93;;;6.95;;
65202;SDS011;51788;45.124;38.966;2022-09-24T03:09:07;7.93;;;6.38;;
65202;SDS011;51788;45.124;38.966;2022-09-24T03:11:37;11.43;;;7.05;;
65202;SDS011;51788;45.124;38.966;2022-09-24T03:14:03;9.32;;;6.72;;
65202;SDS011;51788;45.124;38.966;2022-09-24T03:16:29;11.10;;;6.95;;
65202;SDS011;51788;45.124;38.966;2022-09-24T03:18:55;10.23;;;6.63;;
65202;SDS011;51788;45.124;38.966;2022-09-24T03:21:21;9.73;;;7.70;;
65202;SDS011;51788;45.124;38.966;2022-09-24T03:23:47;8.13;;;6.70;;
65202;SDS011;51788;45.124;38.966;2022-09-24T03:26:13;10.93;;;6.93;;
65202;SDS011;51788;45.124;38.966;2022-09-24T03:28:40;8.43;;;6.90;;
65202;SDS011;51788;45.124;38.966;2022-09-24T03:31:06;7.43;;;6.65;;
65202;SDS011;51788;45.124;38.966;2022-09-24T03:33:34;9.65;;;6.72;;
65202;SDS011;51788;45.124;38.966;2022-09-24T03:36:06;20.67;;;7.72;;
65202;SDS011;51788;45.124;38.966;2022-09-24T03:38:42;10.18;;;7.38;;
65202;SDS011;51788;45.124;38.966;2022-09-24T03:41:10;7.28;;;6.53;;
65202;SDS011;51788;45.124;38.966;2022-09-24T03:43:37;20.95;;;7.30;;
65202;SDS011;51788;45.124;38.966;2022-09-24T03:46:04;17.70;;;7.68;;
65202;SDS011;51788;45.124;38.966;2022-09-24T03:48:32;7.82;;;6.93;;
65202;SDS011;51788;45.124;38.966;2022-09-24T03:51:05;8.93;;;7.25;;
65202;SDS011;51788;45.124;38.966;2022-09-24T03:53:33;11.13;;;7.25;;
65202;SDS011;51788;45.124;38.966;2022-09-24T03:55:59;9.00;;;7.07;;
65202;SDS011;51788;45.124;38.966;2022-09-24T03:58:29;11.43;;;8.10;;
65202;SDS011;51788;45.124;38.966;2022-09-24T04:00:56;15.27;;;7.75;;
65202;SDS011;51788;45.124;38.966;2022-09-24T04:03:23;12.90;;;7.47;;
65202;SDS011;51788;45.124;38.966;2022-09-24T04:05:50;11.55;;;7.40;;
65202;SDS011;51788;45.124;38.966;2022-09-24T04:08:19;8.85;;;7.10;;
65202;SDS011;51788;45.124;38.966;2022-09-24T04:10:49;6.88;;;5.97;;
65202;SDS011;51788;45.124;38.966;2022-09-24T04:13:16;8.60;;;7.70;;
65202;SDS011;51788;45.124;38.966;2022-09-24T04:15:43;10.05;;;7.70;;
65202;SDS011;51788;45.124;38.966;2022-09-24T04:18:09;10.48;;;7.22;;
65202;SDS011;51788;45.124;38.966;2022-09-24T04:20:35;9.57;;;6.78;;
65202;SDS011;51788;45.124;38.966;2022-09-24T04:23:02;10.05;;;7.60;;
65202;SDS011;51788;45.124;38.966;2022-09-24T04:25:29;9.77;;;8.88;;
65202;SDS011;51788;45.124;38.966;2022-09-24T04:27:59;8.77;;;7.88;;
65202;SDS011;51788;45.124;38.966;2022-09-24T04:30:28;8.13;;;7.35;;
65202;SDS011;51788;45.124;38.966;2022-09-24T04:32:55;8.95;;;8.10;;
65202;SDS011;51788;45.124;38.966;2022-09-24T04:35:24;9.70;;;7.53;;
65202;SDS011;51788;45.124;38.966;2022-09-24T04:37:51;12.05;;;7.70;;
65202;SDS011;51788;45.124;38.966;2022-09-24T04:40:17;10.82;;;7.57;;
65202;SDS011;51788;45.124;38.966;2022-09-24T04:42:43;8.50;;;7.45;;
65202;SDS011;51788;45.124;38.966;2022-09-24T04:45:11;10.15;;;6.85;;
65202;SDS011;51788;45.124;38.966;2022-09-24T04:47:38;13.25;;;7.88;;
65202;SDS011;51788;45.124;38.966;2022-09-24T04:50:08;12.82;;;7.57;;
65202;SDS011;51788;45.124;38.966;2022-09-24T04:52:36;11.63;;;7.75;;
65202;SDS011;51788;45.124;38.966;2022-09-24T04:55:03;8.73;;;7.82;;
65202;SDS011;51788;45.124;38.966;2022-09-24T04:57:29;8.82;;;7.93;;
65202;SDS011;51788;45.124;38.966;2022-09-24T05:00:00;9.07;;;7.18;;
65202;SDS011;51788;45.124;38.966;2022-09-24T05:02:28;8.38;;;7.32;;
65202;SDS011;51788;45.124;38.966;2022-09-24T05:04:54;7.40;;;6.63;;
65202;SDS011;51788;45.124;38.966;2022-09-24T05:07:20;12.25;;;7.85;;
65202;SDS011;51788;45.124;38.966;2022-09-24T05:09:46;12.13;;;8.90;;
65202;SDS011;51788;45.124;38.966;2022-09-24T05:12:12;7.90;;;6.95;;
65202;SDS011;51788;45.124;38.966;2022-09-24T05:14:38;8.45;;;7.45;;
65202;SDS011;51788;45.124;38.966;2022-09-24T05:17:04;9.30;;;8.40;;
65202;SDS011;51788;45.124;38.966;2022-09-24T05:19:30;8.32;;;7.63;;
65202;SDS011;51788;45.124;38.966;2022-09-24T05:21:56;8.95;;;7.78;;
65202;SDS011;51788;45.124;38.966;2022-09-24T05:24:22;11.85;;;7.82;;
65202;SDS011;51788;45.124;38.966;2022-09-24T05:26:48;7.72;;;7.03;;
65202;SDS011;51788;45.124;38.966;2022-09-24T05:29:32;14.90;;;7.88;;
65202;SDS011;51788;45.124;38.966;2022-09-24T05:31:58;13.80;;;8.63;;
65202;SDS011;51788;45.124;38.966;2022-09-24T05:34:27;11.70;;;7.90;;
65202;SDS011;51788;45.124;38.966;2022-09-24T05:36:53;9.43;;;8.43;;
65202;SDS011;51788;45.124;38.966;2022-09-24T05:39:19;9.85;;;7.88;;
65202;SDS011;51788;45.124;38.966;2022-09-24T05:41:45;13.35;;;9.20;;
65202;SDS011;51788;45.124;38.966;2022-09-24T05:44:11;10.02;;;9.02;;
65202;SDS011;51788;45.124;38.966;2022-09-24T05:46:37;8.45;;;7.65;;
65202;SDS011;51788;45.124;38.966;2022-09-24T05:49:03;10.20;;;9.15;;
65202;SDS011;51788;45.124;38.966;2022-09-24T05:51:29;8.98;;;8.07;;
65202;SDS011;51788;45.124;38.966;2022-09-24T05:53:55;14.98;;;8.23;;
65202;SDS011;51788;45.124;38.966;2022-09-24T05:56:21;7.38;;;6.68;;
65202;SDS011;51788;45.124;38.966;2022-09-24T05:58:47;11.35;;;8.23;;
65202;SDS011;51788;45.124;38.966;2022-09-24T06:01:14;9.73;;;7.82;;
65202;SDS011;51788;45.124;38.966;2022-09-24T06:03:41;8.95;;;7.28;;
65202;SDS011;51788;45.124;38.966;2022-09-24T06:06:06;7.75;;;7.05;;
65202;SDS011;51788;45.124;38.966;2022-09-24T06:08:32;8.68;;;7.88;;
65202;SDS011;51788;45.124;38.966;2022-09-24T06:10:59;14.05;;;7.85;;
65202;SDS011;51788;45.124;38.966;2022-09-24T06:13:26;7.22;;;6.47;;
65202;SDS011;51788;45.124;38.966;2022-09-24T06:15:59;8.38;;;7.53;;
65202;SDS011;51788;45.124;38.966;2022-09-24T06:18:32;7.05;;;6.38;;
65202;SDS011;51788;45.124;38.966;2022-09-24T06:21:03;8.32;;;7.53;;
65202;SDS011;51788;45.124;38.966;2022-09-24T06:23:32;8.45;;;7.32;;
65202;SDS011;51788;45.124;38.966;2022-09-24T06:26:02;13.30;;;7.68;;
65202;SDS011;51788;45.124;38.966;2022-09-24T06:28:28;5.70;;;5.28;;
65202;SDS011;51788;45.124;38.966;2022-09-24T06:30:54;15.88;;;7.40;;
65202;SDS011;51788;45.124;38.966;2022-09-24T06:33:23;9.85;;;7.43;;
65202;SDS011;51788;45.124;38.966;2022-09-24T06:35:49;9.63;;;8.27;;
65202;SDS011;51788;45.124;38.966;2022-09-24T06:38:16;7.15;;;6.53;;
65202;SDS011;51788;45.124;38.966;2022-09-24T06:40:43;8.40;;;7.45;;
65202;SDS011;51788;45.124;38.966;2022-09-24T06:43:11;10.77;;;8.20;;
65202;SDS011;51788;45.124;38.966;2022-09-24T06:45:38;8.68;;;7.88;;
65202;SDS011;51788;45.124;38.966;2022-09-24T06:48:07;9.90;;;6.97;;
65202;SDS011;51788;45.124;38.966;2022-09-24T06:50:37;8.25;;;7.30;;
65202;SDS011;51788;45.124;38.966;2022-09-24T06:53:05;8.15;;;7.32;;
65202;SDS011;51788;45.124;38.966;2022-09-24T06:55:32;9.93;;;6.97;;
65202;SDS011;51788;45.124;38.966;2022-09-24T06:58:03;8.15;;;7.32;;
65202;SDS011;51788;45.124;38.966;2022-09-24T07:00:32;8.38;;;7.50;;
65202;SDS011;51788;45.124;38.966;2022-09-24T07:02:58;10.82;;;7.93;;
65202;SDS011;51788;45.124;38.966;2022-09-24T07:05:25;10.65;;;7.57;;
65202;SDS011;51788;45.124;38.966;2022-09-24T07:07:51;7.22;;;6.57;;
65202;SDS011;51788;45.124;38.966;2022-09-24T07:10:17;9.75;;;7.78;;
65202;SDS011;51788;45.124;38.966;2022-09-24T07:12:43;7.00;;;6.40;;
65202;SDS011;51788;45.124;38.966;2022-09-24T07:15:09;6.05;;;5.55;;
65202;SDS011;51788;45.124;38.966;2022-09-24T07:17:35;8.50;;;7.05;;
65202;SDS011;51788;45.124;38.966;2022-09-24T07:20:02;9.60;;;5.93;;
65202;SDS011;51788;45.124;38.966;2022-09-24T07:22:29;5.55;;;5.05;;
65202;SDS011;51788;45.124;38.966;2022-09-24T07:24:55;6.63;;;5.72;;
65202;SDS011;51788;45.124;38.966;2022-09-24T07:27:21;8.93;;;5.90;;
65202;SDS011;51788;45.124;38.966;2022-09-24T07:29:47;9.98;;;5.55;;
65202;SDS011;51788;45.124;38.966;2022-09-24T07:32:14;6.03;;;5.57;;
65202;SDS011;51788;45.124;38.966;2022-09-24T07:34:41;10.48;;;6.00;;
65202;SDS011;51788;45.124;38.966;2022-09-24T07:37:07;5.80;;;5.30;;
65202;SDS011;51788;45.124;38.966;2022-09-24T07:39:34;7.00;;;5.65;;
65202;SDS011;51788;45.124;38.966;2022-09-24T07:42:00;7.32;;;5.72;;
65202;SDS011;51788;45.124;38.966;2022-09-24T07:44:26;8.07;;;6.15;;
65202;SDS011;51788;45.124;38.966;2022-09-24T07:46:53;6.68;;;5.95;;
65202;SDS011;51788;45.124;38.966;2022-09-24T07:49:20;6.03;;;5.50;;
65202;SDS011;51788;45.124;38.966;2022-09-24T07:51:47;7.80;;;5.97;;
65202;SDS011;51788;45.124;38.966;2022-09-24T07:54:13;7.53;;;6.05;;
65202;SDS011;51788;45.124;38.966;2022-09-24T07:56:41;8.02;;;6.20;;
65202;SDS011;51788;45.124;38.966;2022-09-24T07:59:07;4.82;;;4.53;;
65202;SDS011;51788;45.124;38.966;2022-09-24T08:01:35;4.72;;;4.32;;
65202;SDS011;51788;45.124;38.966;2022-09-24T08:04:02;8.15;;;5.22;;
65202;SDS011;51788;45.124;38.966;2022-09-24T08:06:29;5.35;;;4.95;;
65202;SDS011;51788;45.124;38.966;2022-09-24T08:08:58;7.00;;;4.97;;
65202;SDS011;51788;45.124;38.966;2022-09-24T08:11:24;5.22;;;4.82;;
65202;SDS011;51788;45.124;38.966;2022-09-24T08:13:50;5.85;;;5.20;;
65202;SDS011;51788;45.124;38.966;2022-09-24T08:16:16;6.72;;;4.70;;
65202;SDS011;51788;45.124;38.966;2022-09-24T08:18:45;6.38;;;5.30;;
65202;SDS011;51788;45.124;38.966;2022-09-24T08:21:11;10.02;;;4.72;;
65202;SDS011;51788;45.124;38.966;2022-09-24T08:23:40;5.55;;;5.00;;
65202;SDS011;51788;45.124;38.966;2022-09-24T08:26:08;9.20;;;4.70;;
65202;SDS011;51788;45.124;38.966;2022-09-24T08:28:35;4.38;;;4.03;;
65202;SDS011;51788;45.124;38.966;2022-09-24T08:31:03;4.00;;;3.70;;
65202;SDS011;51788;45.124;38.966;2022-09-24T08:33:33;6.83;;;5.10;;
65202;SDS011;51788;45.124;38.966;2022-09-24T08:36:01;8.30;;;4.35;;
65202;SDS011;51788;45.124;38.966;2022-09-24T08:38:28;6.65;;;6.05;;
65202;SDS011;51788;45.124;38.966;2022-09-24T08:41:04;5.88;;;4.57;;
65202;SDS011;51788;45.124;38.966;2022-09-24T08:43:54;6.10;;;4.55;;
65202;SDS011;51788;45.124;38.966;2022-09-24T08:46:27;4.80;;;3.92;;
65202;SDS011;51788;45.124;38.966;2022-09-24T08:49:24;5.57;;;4.43;;
65202;SDS011;51788;45.124;38.966;2022-09-24T08:51:58;5.28;;;3.90;;
65202;SDS011;51788;45.124;38.966;2022-09-24T08:54:31;7.20;;;4.38;;
65202;SDS011;51788;45.124;38.966;2022-09-24T08:57:02;4.65;;;4.22;;
65202;SDS011;51788;45.124;38.966;2022-09-24T08:59:32;5.65;;;5.13;;
65202;SDS011;51788;45.124;38.966;2022-09-24T09:04:57;3.97;;;3.67;;
65202;SDS011;51788;45.124;38.966;2022-09-24T09:10:07;6.72;;;6.10;;
65202;SDS011;51788;45.124;38.966;2022-09-24T09:12:55;7.55;;;6.30;;
65202;SDS011;51788;45.124;38.966;2022-09-24T09:16:11;7.57;;;3.75;;
65202;SDS011;51788;45.124;38.966;2022-09-24T09:18:45;6.05;;;3.83;;
65202;SDS011;51788;45.124;38.966;2022-09-24T09:21:27;4.15;;;3.67;;
65202;SDS011;51788;45.124;38.966;2022-09-24T09:24:02;6.43;;;3.42;;
65202;SDS011;51788;45.124;38.966;2022-09-24T09:26:29;3.70;;;3.40;;
65202;SDS011;51788;45.124;38.966;2022-09-24T09:28:59;3.75;;;3.53;;
65202;SDS011;51788;45.124;38.966;2022-09-24T09:42:30;2.70;;;2.60;;
65202;SDS011;51788;45.124;38.966;2022-09-24T09:45:21;5.80;;;3.08;;
65202;SDS011;51788;45.124;38.966;2022-09-24T09:48:08;2.65;;;2.45;;
65202;SDS011;51788;45.124;38.966;2022-09-24T09:53:17;7.00;;;2.40;;
65202;SDS011;51788;45.124;38.966;2022-09-24T09:55:50;4.25;;;2.72;;
65202;SDS011;51788;45.124;38.966;2022-09-24T09:58:19;2.60;;;2.40;;
65202;SDS011;51788;45.124;38.966;2022-09-24T10:00:51;2.58;;;2.35;;
65202;SDS011;51788;45.124;38.966;2022-09-24T10:03:22;3.85;;;2.38;;
65202;SDS011;51788;45.124;38.966;2022-09-24T10:05:54;9.73;;;2.10;;
65202;SDS011;51788;45.124;38.966;2022-09-24T10:08:22;6.00;;;2.20;;
65202;SDS011;51788;45.124;38.966;2022-09-24T10:10:59;4.07;;;1.83;;
65202;SDS011;51788;45.124;38.966;2022-09-24T10:13:26;1.90;;;1.80;;
65202;SDS011;51788;45.124;38.966;2022-09-24T10:15:53;2.63;;;2.20;;
65202;SDS011;51788;45.124;38.966;2022-09-24T10:18:32;3.58;;;2.13;;
65202;SDS011;51788;45.124;38.966;2022-09-24T10:21:05;3.28;;;2.30;;
65202;SDS011;51788;45.124;38.966;2022-09-24T10:23:36;2.65;;;2.20;;
65202;SDS011;51788;45.124;38.966;2022-09-24T10:26:05;14.57;;;3.17;;
65202;SDS011;51788;45.124;38.966;2022-09-24T10:28:33;1.90;;;1.80;;
65202;SDS011;51788;45.124;38.966;2022-09-24T10:31:21;7.40;;;1.85;;
65202;SDS011;51788;45.124;38.966;2022-09-24T10:33:49;3.85;;;2.20;;
65202;SDS011;51788;45.124;38.966;2022-09-24T10:36:20;1.88;;;1.60;;
65202;SDS011;51788;45.124;38.966;2022-09-24T10:38:47;3.05;;;1.60;;
65202;SDS011;51788;45.124;38.966;2022-09-24T10:41:27;1.80;;;1.70;;
65202;SDS011;51788;45.124;38.966;2022-09-24T10:43:55;1.70;;;1.60;;
65202;SDS011;51788;45.124;38.966;2022-09-24T10:56:59;3.70;;;1.60;;
65202;SDS011;51788;45.124;38.966;2022-09-24T11:00:06;4.88;;;2.08;;
65202;SDS011;51788;45.124;38.966;2022-09-24T11:06:00;3.20;;;1.50;;
65202;SDS011;51788;45.124;38.966;2022-09-24T11:09:03;19.20;;;1.83;;
65202;SDS011;51788;45.124;38.966;2022-09-24T11:22:55;4.03;;;1.50;;
65202;SDS011;51788;45.124;38.966;2022-09-24T11:28:43;1.17;;;1.17;;
65202;SDS011;51788;45.124;38.966;2022-09-24T11:34:06;1.73;;;1.50;;
65202;SDS011;51788;45.124;38.966;2022-09-24T11:36:51;1.88;;;1.63;;
65202;SDS011;51788;45.124;38.966;2022-09-24T11:46:25;3.33;;;1.60;;
65202;SDS011;51788;45.124;38.966;2022-09-24T11:48:59;12.05;;;1.80;;
65202;SDS011;51788;45.124;38.966;2022-09-24T11:57:14;4.40;;;1.60;;
65202;SDS011;51788;45.124;38.966;2022-09-24T12:02:36;11.43;;;2.20;;
65202;SDS011;51788;45.124;38.966;2022-09-24T12:05:18;10.00;;;2.30;;
65202;SDS011;51788;45.124;38.966;2022-09-24T12:10:30;4.05;;;1.92;;
65202;SDS011;51788;45.124;38.966;2022-09-24T12:13:14;2.30;;;2.08;;
65202;SDS011;51788;45.124;38.966;2022-09-24T12:20:58;6.50;;;1.90;;
65202;SDS011;51788;45.124;38.966;2022-09-24T12:23:29;2.15;;;1.98;;
65202;SDS011;51788;45.124;38.966;2022-09-24T12:25:59;3.42;;;2.28;;
65202;SDS011;51788;45.124;38.966;2022-09-24T12:28:32;4.00;;;2.33;;
65202;SDS011;51788;45.124;38.966;2022-09-24T12:31:50;4.55;;;2.30;;
65202;SDS011;51788;45.124;38.966;2022-09-24T12:37:24;6.90;;;2.83;;
65202;SDS011;51788;45.124;38.966;2022-09-24T12:42:41;7.25;;;1.98;;
65202;SDS011;51788;45.124;38.966;2022-09-24T12:45:11;3.75;;;2.00;;
65202;SDS011;51788;45.124;38.966;2022-09-24T12:47:45;1.80;;;1.70;;
65202;SDS011;51788;45.124;38.966;2022-09-24T12:50:21;2.08;;;1.88;;
65202;SDS011;51788;45.124;38.966;2022-09-24T12:52:56;2.67;;;2.08;;
65202;SDS011;51788;45.124;38.966;2022-09-24T12:55:23;3.70;;;2.28;;
65202;SDS011;51788;45.124;38.966;2022-09-24T12:57:54;5.03;;;2.10;;
65202;SDS011;51788;45.124;38.966;2022-09-24T13:02:56;4.50;;;3.40;;
65202;SDS011;51788;45.124;38.966;2022-09-24T13:07:56;7.53;;;3.28;;
65202;SDS011;51788;45.124;38.966;2022-09-24T13:10:28;2.33;;;2.13;;
65202;SDS011;51788;45.124;38.966;2022-09-24T13:12:59;3.63;;;2.42;;
65202;SDS011;51788;45.124;38.966;2022-09-24T13:15:37;2.22;;;2.10;;
65202;SDS011;51788;45.124;38.966;2022-09-24T13:20:36;3.10;;;2.90;;
65202;SDS011;51788;45.124;38.966;2022-09-24T13:25:38;4.68;;;2.13;;
65202;SDS011;51788;45.124;38.966;2022-09-24T13:28:21;2.80;;;2.13;;
65202;SDS011;51788;45.124;38.966;2022-09-24T13:31:07;5.13;;;3.20;;
65202;SDS011;51788;45.124;38.966;2022-09-24T13:33:47;7.07;;;2.67;;
65202;SDS011;51788;45.124;38.966;2022-09-24T13:36:18;6.30;;;4.00;;
65202;SDS011;51788;45.124;38.966;2022-09-24T13:39:19;2.70;;;2.50;;
65202;SDS011;51788;45.124;38.966;2022-09-24T13:41:47;3.20;;;2.90;;
65202;SDS011;51788;45.124;38.966;2022-09-24T13:46:58;5.25;;;3.22;;
65202;SDS011;51788;45.124;38.966;2022-09-24T13:49:28;15.80;;;3.05;;
65202;SDS011;51788;45.124;38.966;2022-09-24T13:52:07;8.55;;;3.60;;
65202;SDS011;51788;45.124;38.966;2022-09-24T13:54:44;19.73;;;3.05;;
65202;SDS011;51788;45.124;38.966;2022-09-24T13:57:28;19.63;;;7.10;;
65202;SDS011;51788;45.124;38.966;2022-09-24T14:00:02;4.07;;;3.58;;
65202;SDS011;51788;45.124;38.966;2022-09-24T14:02:42;7.20;;;3.30;;
65202;SDS011;51788;45.124;38.966;2022-09-24T14:05:24;13.40;;;5.00;;
65202;SDS011;51788;45.124;38.966;2022-09-24T14:08:13;20.38;;;5.82;;
65202;SDS011;51788;45.124;38.966;2022-09-24T14:10:40;10.40;;;2.97;;
65202;SDS011;51788;45.124;38.966;2022-09-24T14:15:50;3.50;;;2.50;;
65202;SDS011;51788;45.124;38.966;2022-09-24T14:18:32;2.40;;;2.30;;
65202;SDS011;51788;45.124;38.966;2022-09-24T14:21:00;3.28;;;2.30;;
65202;SDS011;51788;45.124;38.966;2022-09-24T14:23:47;3.33;;;2.80;;
65202;SDS011;51788;45.124;38.966;2022-09-24T14:28:45;3.30;;;3.00;;
65202;SDS011;51788;45.124;38.966;2022-09-24T14:31:11;3.60;;;2.42;;
65202;SDS011;51788;45.124;38.966;2022-09-24T14:33:37;2.30;;;2.20;;
65202;SDS011;51788;45.124;38.966;2022-09-24T14:36:08;2.50;;;2.30;;
65202;SDS011;51788;45.124;38.966;2022-09-24T14:38:43;3.60;;;2.30;;
65202;SDS011;51788;45.124;38.966;2022-09-24T14:41:22;2.92;;;2.72;;
65202;SDS011;51788;45.124;38.966;2022-09-24T14:44:06;2.63;;;2.42;;
65202;SDS011;51788;45.124;38.966;2022-09-24T14:46:46;5.30;;;2.60;;
65202;SDS011;51788;45.124;38.966;2022-09-24T14:49:18;3.55;;;1.90;;
65202;SDS011;51788;45.124;38.966;2022-09-24T14:51:59;2.65;;;2.45;;
65202;SDS011;51788;45.124;38.966;2022-09-24T14:56:55;3.88;;;3.38;;
65202;SDS011;51788;45.124;38.966;2022-09-24T14:59:35;5.90;;;3.70;;
65202;SDS011;51788;45.124;38.966;2022-09-24T15:02:24;3.78;;;3.47;;
65202;SDS011;51788;45.124;38.966;2022-09-24T15:05:00;5.32;;;4.53;;
65202;SDS011;51788;45.124;38.966;2022-09-24T15:07:28;5.13;;;4.63;;
65202;SDS011;51788;45.124;38.966;2022-09-24T15:09:58;8.50;;;4.03;;
65202;SDS011;51788;45.124;38.966;2022-09-24T15:12:31;7.43;;;6.78;;
65202;SDS011;51788;45.124;38.966;2022-09-24T15:17:46;6.30;;;5.70;;
65202;SDS011;51788;45.124;38.966;2022-09-24T15:20:12;6.28;;;5.53;;
65202;SDS011;51788;45.124;38.966;2022-09-24T15:22:38;5.13;;;4.72;;
65202;SDS011;51788;45.124;38.966;2022-09-24T15:25:04;5.15;;;4.65;;
65202;SDS011;51788;45.124;38.966;2022-09-24T15:27:32;5.85;;;4.53;;
65202;SDS011;51788;45.124;38.966;2022-09-24T15:30:01;5.53;;;4.88;;
65202;SDS011;51788;45.124;38.966;2022-09-24T15:32:29;9.10;;;5.75;;
65202;SDS011;51788;45.124;38.966;2022-09-24T15:34:57;6.07;;;4.78;;
65202;SDS011;51788;45.124;38.966;2022-09-24T15:37:23;5.82;;;4.93;;
65202;SDS011;51788;45.124;38.966;2022-09-24T15:39:51;11.88;;;6.82;;
65202;SDS011;51788;45.124;38.966;2022-09-24T15:42:21;10.02;;;8.20;;
65202;SDS011;51788;45.124;38.966;2022-09-24T15:44:48;9.95;;;8.60;;
65202;SDS011;51788;45.124;38.966;2022-09-24T15:47:15;13.35;;;10.77;;
65202;SDS011;51788;45.124;38.966;2022-09-24T15:49:42;10.10;;;8.45;;
65202;SDS011;51788;45.124;38.966;2022-09-24T15:52:13;6.85;;;5.82;;
65202;SDS011;51788;45.124;38.966;2022-09-24T15:54:39;5.10;;;4.60;;
65202;SDS011;51788;45.124;38.966;2022-09-24T15:57:05;7.53;;;6.75;;
65202;SDS011;51788;45.124;38.966;2022-09-24T15:59:31;8.68;;;7.45;;
65202;SDS011;51788;45.124;38.966;2022-09-24T16:01:58;10.05;;;7.32;;
65202;SDS011;51788;45.124;38.966;2022-09-24T16:04:27;7.65;;;6.75;;
65202;SDS011;51788;45.124;38.966;2022-09-24T16:06:53;7.38;;;5.43;;
65202;SDS011;51788;45.124;38.966;2022-09-24T16:09:19;5.25;;;4.80;;
65202;SDS011;51788;45.124;38.966;2022-09-24T16:11:45;5.75;;;5.22;;
65202;SDS011;51788;45.124;38.966;2022-09-24T16:14:11;4.25;;;3.78;;
65202;SDS011;51788;45.124;38.966;2022-09-24T16:16:38;5.88;;;3.53;;
65202;SDS011;51788;45.124;38.966;2022-09-24T16:19:04;3.67;;;3.42;;
65202;SDS011;51788;45.124;38.966;2022-09-24T16:21:31;3.92;;;3.63;;
65202;SDS011;51788;45.124;38.966;2022-09-24T16:23:57;4.45;;;3.97;;
65202;SDS011;51788;45.124;38.966;2022-09-24T16:26:24;3.97;;;3.58;;
65202;SDS011;51788;45.124;38.966;2022-09-24T16:28:51;5.22;;;4.70;;
65202;SDS011;51788;45.124;38.966;2022-09-24T16:31:20;6.40;;;4.30;;
65202;SDS011;51788;45.124;38.966;2022-09-24T16:33:48;5.03;;;3.42;;
65202;SDS011;51788;45.124;38.966;2022-09-24T16:36:14;4.85;;;4.35;;
65202;SDS011;51788;45.124;38.966;2022-09-24T16:38:40;4.07;;;3.53;;
65202;SDS011;51788;45.124;38.966;2022-09-24T16:41:06;7.90;;;3.47;;
65202;SDS011;51788;45.124;38.966;2022-09-24T16:43:32;4.40;;;3.90;;
65202;SDS011;51788;45.124;38.966;2022-09-24T16:46:08;3.28;;;2.78;;
65202;SDS011;51788;45.124;38.966;2022-09-24T16:48:34;3.85;;;3.25;;
65202;SDS011;51788;45.124;38.966;2022-09-24T16:51:08;4.28;;;3.55;;
65202;SDS011;51788;45.124;38.966;2022-09-24T16:53:36;5.40;;;3.00;;